sensor_id;sensor_type;location;lat;lon;timestamp;noise_LAeq;noise_LA_min;noise_LA_max;noise_LA01;noise_LA95
70245;Laerm;57637;49.272;8.590;2024-01-10T00:00:07;51.77;47.98;55.05;;
70245;Laerm;57637;49.272;8.590;2024-01-10T00:02:34;51.95;48.85;54.74;;
70245;Laerm;57637;49.272;8.590;2024-01-10T00:04:59;51.88;48.78;54.53;;
70245;Laerm;57637;49.272;8.590;2024-01-10T00:07:24;51.35;48.55;54.36;;
70245;Laerm;57637;49.272;8.590;2024-01-10T00:09:50;51.11;48.72;54.47;;
70245;Laerm;57637;49.272;8.590;2024-01-10T00:12:15;50.47;48.13;53.38;;
70245;Laerm;57637;49.272;8.590;2024-01-10T00:14:41;50.64;48.36;54.18;;
70245;Laerm;57637;49.272;8.590;2024-01-10T00:17:06;51.33;48.69;54.02;;
70245;Laerm;57637;49.272;8.590;2024-01-10T00:19:31;52.52;50.29;55.25;;
70245;Laerm;57637;49.272;8.590;2024-01-10T00:21:56;51.74;48.97;53.90;;
70245;Laerm;57637;49.272;8.590;2024-01-10T00:24:22;51.72;49.62;54.11;;
70245;Laerm;57637;49.272;8.590;2024-01-10T00:26:47;51.47;49.25;54.28;;
70245;Laerm;57637;49.272;8.590;2024-01-10T00:29:13;52.60;49.75;55.72;;
70245;Laerm;57637;49.272;8.590;2024-01-10T00:31:39;53.75;50.18;56.56;;
70245;Laerm;57637;49.272;8.590;2024-01-10T00:34:04;53.21;48.66;56.21;;
70245;Laerm;57637;49.272;8.590;2024-01-10T00:36:30;53.57;49.94;56.49;;
70245;Laerm;57637;49.272;8.590;2024-01-10T00:38:55;52.92;49.52;55.88;;
70245;Laerm;57637;49.272;8.590;2024-01-10T00:41:21;52.83;49.68;56.19;;
70245;Laerm;57637;49.272;8.590;2024-01-10T00:43:46;53.16;49.48;55.82;;
70245;Laerm;57637;49.272;8.590;2024-01-10T00:46:11;52.57;49.51;55.51;;
70245;Laerm;57637;49.272;8.590;2024-01-10T00:48:37;52.25;49.59;55.16;;
70245;Laerm;57637;49.272;8.590;2024-01-10T00:51:02;52.76;49.83;55.55;;
70245;Laerm;57637;49.272;8.590;2024-01-10T00:53:33;53.27;50.53;55.91;;
70245;Laerm;57637;49.272;8.590;2024-01-10T00:55:58;53.31;49.85;56.18;;
70245;Laerm;57637;49.272;8.590;2024-01-10T00:58:24;52.36;49.49;55.59;;
70245;Laerm;57637;49.272;8.590;2024-01-10T01:00:49;52.79;49.72;55.96;;
70245;Laerm;57637;49.272;8.590;2024-01-10T01:03:14;53.09;49.71;56.75;;
70245;Laerm;57637;49.272;8.590;2024-01-10T01:05:39;52.57;49.23;55.33;;
70245;Laerm;57637;49.272;8.590;2024-01-10T01:08:05;53.47;50.20;56.07;;
70245;Laerm;57637;49.272;8.590;2024-01-10T01:10:31;52.67;50.07;55.79;;
70245;Laerm;57637;49.272;8.590;2024-01-10T01:12:56;53.14;49.79;55.83;;
70245;Laerm;57637;49.272;8.590;2024-01-10T01:15:21;53.46;50.58;55.94;;
70245;Laerm;57637;49.272;8.590;2024-01-10T01:17:46;52.60;49.26;55.49;;
70245;Laerm;57637;49.272;8.590;2024-01-10T01:20:12;52.45;49.17;55.73;;
70245;Laerm;57637;49.272;8.590;2024-01-10T01:22:37;52.40;48.94;56.15;;
70245;Laerm;57637;49.272;8.590;2024-01-10T01:25:03;52.33;49.67;55.29;;
70245;Laerm;57637;49.272;8.590;2024-01-10T01:27:28;53.09;49.69;56.28;;
70245;Laerm;57637;49.272;8.590;2024-01-10T01:29:53;52.24;49.06;55.20;;
70245;Laerm;57637;49.272;8.590;2024-01-10T01:32:18;52.12;49.36;55.10;;
70245;Laerm;57637;49.272;8.590;2024-01-10T01:34:44;52.80;49.31;55.16;;
70245;Laerm;57637;49.272;8.590;2024-01-10T01:37:09;52.65;49.45;56.14;;
70245;Laerm;57637;49.272;8.590;2024-01-10T01:39:34;52.92;49.43;55.94;;
70245;Laerm;57637;49.272;8.590;2024-01-10T01:42:00;52.48;49.44;55.20;;
70245;Laerm;57637;49.272;8.590;2024-01-10T01:44:25;53.54;50.21;56.24;;
70245;Laerm;57637;49.272;8.590;2024-01-10T01:46:50;52.67;49.78;55.73;;
70245;Laerm;57637;49.272;8.590;2024-01-10T01:49:16;53.05;49.42;56.03;;
70245;Laerm;57637;49.272;8.590;2024-01-10T01:51:41;52.44;48.63;55.38;;
70245;Laerm;57637;49.272;8.590;2024-01-10T01:54:07;51.67;48.63;55.33;;
70245;Laerm;57637;49.272;8.590;2024-01-10T01:56:37;52.16;49.30;55.89;;
70245;Laerm;57637;49.272;8.590;2024-01-10T01:59:04;51.93;48.90;54.87;;
70245;Laerm;57637;49.272;8.590;2024-01-10T02:01:30;51.73;48.56;54.84;;
70245;Laerm;57637;49.272;8.590;2024-01-10T02:03:55;52.15;48.97;54.82;;
70245;Laerm;57637;49.272;8.590;2024-01-10T02:06:21;51.85;48.84;54.54;;
70245;Laerm;57637;49.272;8.590;2024-01-10T02:08:46;50.98;48.89;53.90;;
70245;Laerm;57637;49.272;8.590;2024-01-10T02:11:12;50.79;48.46;54.07;;
70245;Laerm;57637;49.272;8.590;2024-01-10T02:13:37;50.58;48.06;53.29;;
70245;Laerm;57637;49.272;8.590;2024-01-10T02:16:03;51.45;48.63;54.50;;
70245;Laerm;57637;49.272;8.590;2024-01-10T02:18:30;51.53;48.49;55.86;;
70245;Laerm;57637;49.272;8.590;2024-01-10T02:20:56;51.40;48.94;54.34;;
70245;Laerm;57637;49.272;8.590;2024-01-10T02:23:21;51.21;48.62;55.75;;
70245;Laerm;57637;49.272;8.590;2024-01-10T02:25:46;50.78;48.56;53.29;;
70245;Laerm;57637;49.272;8.590;2024-01-10T02:28:12;51.53;48.74;54.13;;
70245;Laerm;57637;49.272;8.590;2024-01-10T02:30:37;51.62;48.79;54.71;;
70245;Laerm;57637;49.272;8.590;2024-01-10T02:33:02;53.04;49.28;56.21;;
70245;Laerm;57637;49.272;8.590;2024-01-10T02:35:28;52.14;48.83;55.27;;
70245;Laerm;57637;49.272;8.590;2024-01-10T02:37:54;51.50;48.74;54.15;;
70245;Laerm;57637;49.272;8.590;2024-01-10T02:40:22;51.20;48.51;54.99;;
70245;Laerm;57637;49.272;8.590;2024-01-10T02:42:48;51.29;48.85;54.09;;
70245;Laerm;57637;49.272;8.590;2024-01-10T02:45:13;50.61;48.51;53.70;;
70245;Laerm;57637;49.272;8.590;2024-01-10T02:47:38;51.31;48.37;54.29;;
70245;Laerm;57637;49.272;8.590;2024-01-10T02:50:05;51.98;49.17;54.60;;
70245;Laerm;57637;49.272;8.590;2024-01-10T02:52:30;51.43;49.07;54.55;;
70245;Laerm;57637;49.272;8.590;2024-01-10T02:54:56;51.51;48.24;54.85;;
70245;Laerm;57637;49.272;8.590;2024-01-10T02:57:21;51.69;48.43;55.23;;
70245;Laerm;57637;49.272;8.590;2024-01-10T02:59:46;50.86;48.45;53.74;;
70245;Laerm;57637;49.272;8.590;2024-01-10T03:02:12;51.39;48.88;53.90;;
70245;Laerm;57637;49.272;8.590;2024-01-10T03:04:37;52.23;49.74;54.83;;
70245;Laerm;57637;49.272;8.590;2024-01-10T03:07:03;51.05;48.10;54.23;;
70245;Laerm;57637;49.272;8.590;2024-01-10T03:09:28;51.23;48.78;54.33;;
70245;Laerm;57637;49.272;8.590;2024-01-10T03:11:53;50.97;48.53;53.54;;
70245;Laerm;57637;49.272;8.590;2024-01-10T03:14:19;50.72;48.49;53.50;;
70245;Laerm;57637;49.272;8.590;2024-01-10T03:16:44;51.10;48.53;53.42;;
70245;Laerm;57637;49.272;8.590;2024-01-10T03:19:10;50.80;48.50;53.55;;
70245;Laerm;57637;49.272;8.590;2024-01-10T03:21:36;50.77;48.43;53.14;;
70245;Laerm;57637;49.272;8.590;2024-01-10T03:24:01;50.50;48.43;52.86;;
70245;Laerm;57637;49.272;8.590;2024-01-10T03:26:28;50.42;48.52;52.47;;
70245;Laerm;57637;49.272;8.590;2024-01-10T03:28:53;50.86;48.29;54.34;;
70245;Laerm;57637;49.272;8.590;2024-01-10T03:31:19;51.96;48.18;54.71;;
70245;Laerm;57637;49.272;8.590;2024-01-10T03:33:44;51.05;48.29;54.67;;
70245;Laerm;57637;49.272;8.590;2024-01-10T03:36:15;50.72;48.47;53.56;;
70245;Laerm;57637;49.272;8.590;2024-01-10T03:38:40;51.35;48.56;54.48;;
70245;Laerm;57637;49.272;8.590;2024-01-10T03:41:06;50.75;48.66;53.73;;
70245;Laerm;57637;49.272;8.590;2024-01-10T03:43:31;51.21;48.65;54.38;;
70245;Laerm;57637;49.272;8.590;2024-01-10T03:45:57;51.03;48.89;54.26;;
70245;Laerm;57637;49.272;8.590;2024-01-10T03:48:23;50.93;48.78;54.01;;
70245;Laerm;57637;49.272;8.590;2024-01-10T03:50:48;51.45;48.81;54.69;;
70245;Laerm;57637;49.272;8.590;2024-01-10T03:53:14;51.07;48.70;53.76;;
70245;Laerm;57637;49.272;8.590;2024-01-10T03:55:39;50.64;48.49;53.83;;
70245;Laerm;57637;49.272;8.590;2024-01-10T03:58:05;50.14;48.26;52.58;;
70245;Laerm;57637;49.272;8.590;2024-01-10T04:00:30;50.36;48.40;52.84;;
70245;Laerm;57637;49.272;8.590;2024-01-10T04:02:55;50.48;48.33;53.05;;
70245;Laerm;57637;49.272;8.590;2024-01-10T04:05:21;50.39;48.19;53.03;;
70245;Laerm;57637;49.272;8.590;2024-01-10T04:07:50;50.29;48.39;52.90;;
70245;Laerm;57637;49.272;8.590;2024-01-10T04:10:16;50.67;47.77;54.14;;
70245;Laerm;57637;49.272;8.590;2024-01-10T04:12:41;50.03;48.10;53.22;;
70245;Laerm;57637;49.272;8.590;2024-01-10T04:15:07;50.45;48.28;53.18;;
70245;Laerm;57637;49.272;8.590;2024-01-10T04:17:33;50.57;48.45;53.36;;
70245;Laerm;57637;49.272;8.590;2024-01-10T04:19:58;51.27;48.51;54.06;;
70245;Laerm;57637;49.272;8.590;2024-01-10T04:22:24;51.10;48.87;53.47;;
70245;Laerm;57637;49.272;8.590;2024-01-10T04:24:50;49.39;47.71;52.12;;
70245;Laerm;57637;49.272;8.590;2024-01-10T04:27:15;48.87;47.67;50.49;;
70245;Laerm;57637;49.272;8.590;2024-01-10T04:29:41;48.96;47.37;50.36;;
70245;Laerm;57637;49.272;8.590;2024-01-10T04:32:06;49.28;47.41;51.69;;
70245;Laerm;57637;49.272;8.590;2024-01-10T04:34:32;48.84;47.43;50.38;;
70245;Laerm;57637;49.272;8.590;2024-01-10T04:36:57;48.94;47.62;51.16;;
70245;Laerm;57637;49.272;8.590;2024-01-10T04:39:22;48.87;47.33;50.75;;
70245;Laerm;57637;49.272;8.590;2024-01-10T04:41:48;48.99;47.76;50.74;;
70245;Laerm;57637;49.272;8.590;2024-01-10T04:44:13;49.13;47.84;50.97;;
70245;Laerm;57637;49.272;8.590;2024-01-10T04:46:39;49.01;47.69;50.88;;
70245;Laerm;57637;49.272;8.590;2024-01-10T04:49:06;48.91;47.47;52.02;;
70245;Laerm;57637;49.272;8.590;2024-01-10T04:51:31;49.10;47.58;51.50;;
70245;Laerm;57637;49.272;8.590;2024-01-10T04:53:57;49.22;47.37;51.61;;
70245;Laerm;57637;49.272;8.590;2024-01-10T04:56:22;48.98;47.39;51.47;;
70245;Laerm;57637;49.272;8.590;2024-01-10T04:58:47;49.79;47.65;51.85;;
70245;Laerm;57637;49.272;8.590;2024-01-10T05:01:12;50.07;48.13;52.48;;
70245;Laerm;57637;49.272;8.590;2024-01-10T05:03:38;49.88;48.19;51.31;;
70245;Laerm;57637;49.272;8.590;2024-01-10T05:06:03;50.57;48.17;52.49;;
70245;Laerm;57637;49.272;8.590;2024-01-10T05:08:29;49.99;48.31;51.96;;
70245;Laerm;57637;49.272;8.590;2024-01-10T05:10:55;49.22;47.61;51.06;;
70245;Laerm;57637;49.272;8.590;2024-01-10T05:13:20;48.96;47.60;50.81;;
70245;Laerm;57637;49.272;8.590;2024-01-10T05:15:45;49.11;47.70;50.92;;
70245;Laerm;57637;49.272;8.590;2024-01-10T05:18:11;49.07;47.65;51.83;;
70245;Laerm;57637;49.272;8.590;2024-01-10T05:20:36;49.30;47.68;51.43;;
70245;Laerm;57637;49.272;8.590;2024-01-10T05:23:01;49.32;47.82;51.44;;
70245;Laerm;57637;49.272;8.590;2024-01-10T05:25:27;49.06;47.62;50.91;;
70245;Laerm;57637;49.272;8.590;2024-01-10T05:27:52;49.40;47.72;51.77;;
70245;Laerm;57637;49.272;8.590;2024-01-10T05:30:17;49.54;47.94;51.86;;
70245;Laerm;57637;49.272;8.590;2024-01-10T05:32:44;49.14;47.46;50.75;;
70245;Laerm;57637;49.272;8.590;2024-01-10T05:35:09;49.37;47.72;52.54;;
70245;Laerm;57637;49.272;8.590;2024-01-10T05:37:36;49.42;47.75;51.71;;
70245;Laerm;57637;49.272;8.590;2024-01-10T05:40:01;50.06;48.25;52.09;;
70245;Laerm;57637;49.272;8.590;2024-01-10T05:42:27;49.81;47.78;51.66;;
70245;Laerm;57637;49.272;8.590;2024-01-10T05:44:52;49.88;47.99;52.01;;
70245;Laerm;57637;49.272;8.590;2024-01-10T05:47:17;49.60;47.95;51.44;;
70245;Laerm;57637;49.272;8.590;2024-01-10T05:49:42;50.69;48.06;53.64;;
70245;Laerm;57637;49.272;8.590;2024-01-10T05:52:08;50.08;48.32;53.03;;
70245;Laerm;57637;49.272;8.590;2024-01-10T05:54:33;50.26;48.31;51.83;;
70245;Laerm;57637;49.272;8.590;2024-01-10T05:56:58;49.92;48.14;51.91;;
70245;Laerm;57637;49.272;8.590;2024-01-10T05:59:26;49.83;48.18;51.70;;
70245;Laerm;57637;49.272;8.590;2024-01-10T06:01:51;49.55;47.89;52.00;;
70245;Laerm;57637;49.272;8.590;2024-01-10T06:04:17;49.49;47.84;51.72;;
70245;Laerm;57637;49.272;8.590;2024-01-10T06:06:42;49.37;47.80;51.59;;
70245;Laerm;57637;49.272;8.590;2024-01-10T06:09:07;50.10;48.04;58.10;;
70245;Laerm;57637;49.272;8.590;2024-01-10T06:11:43;49.87;47.95;51.83;;
70245;Laerm;57637;49.272;8.590;2024-01-10T06:14:08;50.12;48.48;51.85;;
70245;Laerm;57637;49.272;8.590;2024-01-10T06:16:34;49.70;48.04;51.98;;
70245;Laerm;57637;49.272;8.590;2024-01-10T06:19:00;49.93;48.09;52.02;;
70245;Laerm;57637;49.272;8.590;2024-01-10T06:21:25;50.43;48.26;53.20;;
70245;Laerm;57637;49.272;8.590;2024-01-10T06:23:51;50.55;48.69;53.10;;
70245;Laerm;57637;49.272;8.590;2024-01-10T06:26:16;50.30;48.25;52.87;;
70245;Laerm;57637;49.272;8.590;2024-01-10T06:28:41;50.54;48.49;53.01;;
70245;Laerm;57637;49.272;8.590;2024-01-10T06:31:07;50.72;48.66;52.99;;
70245;Laerm;57637;49.272;8.590;2024-01-10T06:33:33;50.63;48.65;53.50;;
70245;Laerm;57637;49.272;8.590;2024-01-10T06:35:58;50.19;48.30;52.07;;
70245;Laerm;57637;49.272;8.590;2024-01-10T06:38:23;49.95;48.36;51.99;;
70245;Laerm;57637;49.272;8.590;2024-01-10T06:40:49;50.09;48.31;52.09;;
70245;Laerm;57637;49.272;8.590;2024-01-10T06:43:15;49.92;48.04;57.09;;
70245;Laerm;57637;49.272;8.590;2024-01-10T06:45:41;50.13;48.29;52.14;;
70245;Laerm;57637;49.272;8.590;2024-01-10T06:48:07;49.59;47.84;51.28;;
70245;Laerm;57637;49.272;8.590;2024-01-10T06:50:33;49.34;47.96;51.21;;
70245;Laerm;57637;49.272;8.590;2024-01-10T06:52:59;49.60;48.03;54.33;;
70245;Laerm;57637;49.272;8.590;2024-01-10T06:55:24;49.50;47.79;51.41;;
70245;Laerm;57637;49.272;8.590;2024-01-10T06:57:50;49.57;48.07;51.51;;
70245;Laerm;57637;49.272;8.590;2024-01-10T07:00:21;49.98;48.17;52.11;;
70245;Laerm;57637;49.272;8.590;2024-01-10T07:02:46;50.05;48.09;51.83;;
70245;Laerm;57637;49.272;8.590;2024-01-10T07:05:12;49.70;48.03;51.84;;
70245;Laerm;57637;49.272;8.590;2024-01-10T07:07:37;50.17;48.28;52.42;;
70245;Laerm;57637;49.272;8.590;2024-01-10T07:10:03;49.83;48.31;51.76;;
70245;Laerm;57637;49.272;8.590;2024-01-10T07:12:33;50.00;48.12;52.22;;
70245;Laerm;57637;49.272;8.590;2024-01-10T07:14:58;49.99;48.34;52.04;;
70245;Laerm;57637;49.272;8.590;2024-01-10T07:17:24;49.88;48.17;52.37;;
70245;Laerm;57637;49.272;8.590;2024-01-10T07:19:49;49.68;48.02;51.77;;
70245;Laerm;57637;49.272;8.590;2024-01-10T07:22:15;49.94;47.71;53.16;;
70245;Laerm;57637;49.272;8.590;2024-01-10T07:24:40;49.84;47.78;52.10;;
70245;Laerm;57637;49.272;8.590;2024-01-10T07:27:05;50.21;48.24;52.53;;
70245;Laerm;57637;49.272;8.590;2024-01-10T07:29:32;50.29;48.03;52.65;;
70245;Laerm;57637;49.272;8.590;2024-01-10T07:31:57;50.26;48.37;63.49;;
70245;Laerm;57637;49.272;8.590;2024-01-10T07:34:22;49.86;48.08;52.73;;
70245;Laerm;57637;49.272;8.590;2024-01-10T07:36:48;50.46;48.63;52.62;;
70245;Laerm;57637;49.272;8.590;2024-01-10T07:39:13;50.22;48.91;52.00;;
70245;Laerm;57637;49.272;8.590;2024-01-10T07:41:43;50.06;48.26;52.44;;
70245;Laerm;57637;49.272;8.590;2024-01-10T07:44:09;50.03;47.90;57.15;;
70245;Laerm;57637;49.272;8.590;2024-01-10T07:46:35;50.50;48.59;52.22;;
70245;Laerm;57637;49.272;8.590;2024-01-10T07:49:02;49.85;48.01;51.62;;
70245;Laerm;57637;49.272;8.590;2024-01-10T07:51:29;49.66;47.86;51.41;;
70245;Laerm;57637;49.272;8.590;2024-01-10T07:53:55;50.16;48.04;52.49;;
70245;Laerm;57637;49.272;8.590;2024-01-10T07:56:20;50.18;48.02;55.96;;
70245;Laerm;57637;49.272;8.590;2024-01-10T07:58:46;50.40;48.37;52.54;;
70245;Laerm;57637;49.272;8.590;2024-01-10T08:01:11;49.97;48.15;52.00;;
70245;Laerm;57637;49.272;8.590;2024-01-10T08:03:36;51.18;48.94;53.65;;
70245;Laerm;57637;49.272;8.590;2024-01-10T08:06:02;50.54;47.94;52.64;;
70245;Laerm;57637;49.272;8.590;2024-01-10T08:08:27;50.65;48.72;52.64;;
70245;Laerm;57637;49.272;8.590;2024-01-10T08:10:53;50.20;48.31;52.23;;
70245;Laerm;57637;49.272;8.590;2024-01-10T08:13:19;50.48;48.43;53.12;;
70245;Laerm;57637;49.272;8.590;2024-01-10T08:15:44;50.82;48.10;60.03;;
70245;Laerm;57637;49.272;8.590;2024-01-10T08:18:09;51.33;49.19;53.24;;
70245;Laerm;57637;49.272;8.590;2024-01-10T08:20:35;49.94;48.05;52.84;;
70245;Laerm;57637;49.272;8.590;2024-01-10T08:23:00;49.74;47.97;52.30;;
70245;Laerm;57637;49.272;8.590;2024-01-10T08:25:25;50.08;48.01;53.42;;
70245;Laerm;57637;49.272;8.590;2024-01-10T08:27:51;49.59;48.06;51.98;;
70245;Laerm;57637;49.272;8.590;2024-01-10T08:30:19;50.07;48.02;52.57;;
70245;Laerm;57637;49.272;8.590;2024-01-10T08:32:46;52.28;47.69;61.04;;
70245;Laerm;57637;49.272;8.590;2024-01-10T08:35:12;49.59;48.11;51.67;;
70245;Laerm;57637;49.272;8.590;2024-01-10T08:37:37;49.71;47.91;52.16;;
70245;Laerm;57637;49.272;8.590;2024-01-10T08:40:03;49.41;47.96;51.94;;
70245;Laerm;57637;49.272;8.590;2024-01-10T08:42:33;49.45;47.69;51.78;;
70245;Laerm;57637;49.272;8.590;2024-01-10T08:44:58;49.80;48.01;52.54;;
70245;Laerm;57637;49.272;8.590;2024-01-10T08:47:23;49.95;48.12;53.86;;
70245;Laerm;57637;49.272;8.590;2024-01-10T08:49:49;49.95;47.95;56.31;;
70245;Laerm;57637;49.272;8.590;2024-01-10T08:52:14;49.74;47.97;53.74;;
70245;Laerm;57637;49.272;8.590;2024-01-10T08:54:40;49.69;47.90;52.14;;
70245;Laerm;57637;49.272;8.590;2024-01-10T08:57:05;49.38;47.97;51.85;;
70245;Laerm;57637;49.272;8.590;2024-01-10T08:59:30;50.20;48.16;52.41;;
70245;Laerm;57637;49.272;8.590;2024-01-10T09:01:56;50.37;48.20;52.73;;
70245;Laerm;57637;49.272;8.590;2024-01-10T09:04:21;50.18;48.40;52.53;;
70245;Laerm;57637;49.272;8.590;2024-01-10T09:06:46;50.36;48.05;52.68;;
70245;Laerm;57637;49.272;8.590;2024-01-10T09:09:12;49.54;47.89;51.71;;
70245;Laerm;57637;49.272;8.590;2024-01-10T09:11:38;49.41;47.76;52.10;;
70245;Laerm;57637;49.272;8.590;2024-01-10T09:14:04;50.12;48.04;52.92;;
70245;Laerm;57637;49.272;8.590;2024-01-10T09:16:29;49.07;47.78;51.06;;
70245;Laerm;57637;49.272;8.590;2024-01-10T09:18:54;49.06;47.73;50.69;;
70245;Laerm;57637;49.272;8.590;2024-01-10T09:21:23;49.04;47.58;51.04;;
70245;Laerm;57637;49.272;8.590;2024-01-10T09:23:48;49.41;47.58;51.73;;
70245;Laerm;57637;49.272;8.590;2024-01-10T09:26:19;49.29;47.72;52.58;;
70245;Laerm;57637;49.272;8.590;2024-01-10T09:28:44;49.33;47.82;52.01;;
70245;Laerm;57637;49.272;8.590;2024-01-10T09:31:09;49.25;47.86;51.67;;
70245;Laerm;57637;49.272;8.590;2024-01-10T09:33:34;49.65;48.08;52.01;;
70245;Laerm;57637;49.272;8.590;2024-01-10T09:36:00;49.72;48.27;51.85;;
70245;Laerm;57637;49.272;8.590;2024-01-10T09:38:25;49.80;48.05;51.93;;
70245;Laerm;57637;49.272;8.590;2024-01-10T09:40:52;50.04;47.96;52.45;;
70245;Laerm;57637;49.272;8.590;2024-01-10T09:43:24;50.53;48.17;53.07;;
70245;Laerm;57637;49.272;8.590;2024-01-10T09:45:49;51.03;48.56;53.48;;
70245;Laerm;57637;49.272;8.590;2024-01-10T09:48:14;51.39;49.20;53.51;;
70245;Laerm;57637;49.272;8.590;2024-01-10T09:50:43;50.89;48.50;53.32;;
70245;Laerm;57637;49.272;8.590;2024-01-10T09:53:12;50.07;47.76;52.52;;
70245;Laerm;57637;49.272;8.590;2024-01-10T09:55:42;49.72;47.85;52.63;;
70245;Laerm;57637;49.272;8.590;2024-01-10T09:58:08;50.09;48.34;52.87;;
70245;Laerm;57637;49.272;8.590;2024-01-10T10:00:36;49.61;47.74;52.66;;
70245;Laerm;57637;49.272;8.590;2024-01-10T10:03:02;49.86;47.94;52.89;;
70245;Laerm;57637;49.272;8.590;2024-01-10T10:05:29;49.86;47.86;53.28;;
70245;Laerm;57637;49.272;8.590;2024-01-10T10:07:54;49.91;48.10;52.52;;
70245;Laerm;57637;49.272;8.590;2024-01-10T10:10:20;50.78;48.58;53.07;;
70245;Laerm;57637;49.272;8.590;2024-01-10T10:12:46;50.95;49.01;53.55;;
70245;Laerm;57637;49.272;8.590;2024-01-10T10:15:14;51.12;48.73;53.71;;
70245;Laerm;57637;49.272;8.590;2024-01-10T10:17:41;50.48;48.00;52.47;;
70245;Laerm;57637;49.272;8.590;2024-01-10T10:20:13;50.63;48.11;52.85;;
70245;Laerm;57637;49.272;8.590;2024-01-10T10:22:40;50.08;47.82;53.39;;
70245;Laerm;57637;49.272;8.590;2024-01-10T10:25:07;50.45;48.12;53.07;;
70245;Laerm;57637;49.272;8.590;2024-01-10T10:27:32;50.16;48.08;52.66;;
70245;Laerm;57637;49.272;8.590;2024-01-10T10:30:01;49.14;47.84;51.02;;
70245;Laerm;57637;49.272;8.590;2024-01-10T10:32:26;49.79;47.71;52.44;;
70245;Laerm;57637;49.272;8.590;2024-01-10T10:34:51;49.79;47.77;52.81;;
70245;Laerm;57637;49.272;8.590;2024-01-10T10:37:17;49.83;48.02;52.36;;
70245;Laerm;57637;49.272;8.590;2024-01-10T10:39:42;49.44;47.81;51.59;;
70245;Laerm;57637;49.272;8.590;2024-01-10T10:42:08;50.15;47.88;53.51;;
70245;Laerm;57637;49.272;8.590;2024-01-10T10:44:36;50.68;48.19;53.86;;
70245;Laerm;57637;49.272;8.590;2024-01-10T10:47:04;50.40;48.34;54.13;;
70245;Laerm;57637;49.272;8.590;2024-01-10T10:49:33;50.48;48.20;53.44;;
70245;Laerm;57637;49.272;8.590;2024-01-10T10:51:59;49.58;47.97;53.03;;
70245;Laerm;57637;49.272;8.590;2024-01-10T10:54:28;51.01;48.51;54.29;;
70245;Laerm;57637;49.272;8.590;2024-01-10T10:56:57;49.83;48.20;53.20;;
70245;Laerm;57637;49.272;8.590;2024-01-10T10:59:25;50.84;48.42;54.64;;
70245;Laerm;57637;49.272;8.590;2024-01-10T11:01:51;50.47;48.29;54.73;;
70245;Laerm;57637;49.272;8.590;2024-01-10T11:04:19;50.38;47.97;53.00;;
70245;Laerm;57637;49.272;8.590;2024-01-10T11:06:46;50.80;48.05;54.14;;
70245;Laerm;57637;49.272;8.590;2024-01-10T11:09:14;52.49;49.27;54.87;;
70245;Laerm;57637;49.272;8.590;2024-01-10T11:11:55;51.96;48.92;55.36;;
70245;Laerm;57637;49.272;8.590;2024-01-10T11:15:01;51.16;48.32;54.05;;
70245;Laerm;57637;49.272;8.590;2024-01-10T11:25:59;51.65;48.67;54.30;;
70245;Laerm;57637;49.272;8.590;2024-01-10T11:28:25;51.45;49.06;53.85;;
70245;Laerm;57637;49.272;8.590;2024-01-10T11:30:53;51.49;48.35;54.62;;
70245;Laerm;57637;49.272;8.590;2024-01-10T11:33:24;50.82;48.46;54.00;;
70245;Laerm;57637;49.272;8.590;2024-01-10T11:36:26;51.22;48.65;54.02;;
70245;Laerm;57637;49.272;8.590;2024-01-10T11:41:34;52.32;49.04;54.61;;
70245;Laerm;57637;49.272;8.590;2024-01-10T11:46:35;52.23;49.47;54.65;;
70245;Laerm;57637;49.272;8.590;2024-01-10T11:49:02;51.65;48.72;54.80;;
70245;Laerm;57637;49.272;8.590;2024-01-10T11:51:28;52.02;48.72;54.42;;
70245;Laerm;57637;49.272;8.590;2024-01-10T11:53:54;51.12;48.48;54.06;;
70245;Laerm;57637;49.272;8.590;2024-01-10T11:56:22;51.49;48.27;54.27;;
70245;Laerm;57637;49.272;8.590;2024-01-10T11:59:01;51.70;48.10;55.01;;
70245;Laerm;57637;49.272;8.590;2024-01-10T12:01:28;52.11;48.76;54.61;;
70245;Laerm;57637;49.272;8.590;2024-01-10T12:03:55;51.42;48.34;54.10;;
70245;Laerm;57637;49.272;8.590;2024-01-10T12:06:21;51.34;48.56;54.14;;
70245;Laerm;57637;49.272;8.590;2024-01-10T12:08:47;51.84;48.62;54.83;;
70245;Laerm;57637;49.272;8.590;2024-01-10T12:11:13;51.31;48.23;54.56;;
70245;Laerm;57637;49.272;8.590;2024-01-10T12:13:38;51.17;47.89;54.49;;
70245;Laerm;57637;49.272;8.590;2024-01-10T12:16:04;52.17;48.84;55.29;;
70245;Laerm;57637;49.272;8.590;2024-01-10T12:18:30;51.40;48.58;54.45;;
70245;Laerm;57637;49.272;8.590;2024-01-10T12:20:55;51.62;48.04;54.89;;
70245;Laerm;57637;49.272;8.590;2024-01-10T12:23:21;50.64;48.16;54.33;;
70245;Laerm;57637;49.272;8.590;2024-01-10T12:25:48;50.59;48.19;53.86;;
70245;Laerm;57637;49.272;8.590;2024-01-10T12:28:17;50.45;48.25;53.28;;
70245;Laerm;57637;49.272;8.590;2024-01-10T12:30:42;50.70;48.20;53.95;;
70245;Laerm;57637;49.272;8.590;2024-01-10T12:33:10;50.82;48.12;53.97;;
70245;Laerm;57637;49.272;8.590;2024-01-10T12:35:36;50.82;48.60;54.18;;
70245;Laerm;57637;49.272;8.590;2024-01-10T12:38:03;50.29;48.19;52.89;;
70245;Laerm;57637;49.272;8.590;2024-01-10T12:40:28;50.25;48.10;53.13;;
70245;Laerm;57637;49.272;8.590;2024-01-10T12:43:06;50.14;48.06;53.57;;
70245;Laerm;57637;49.272;8.590;2024-01-10T12:45:34;49.76;48.05;52.37;;
70245;Laerm;57637;49.272;8.590;2024-01-10T12:48:00;50.05;47.99;53.15;;
70245;Laerm;57637;49.272;8.590;2024-01-10T12:50:26;50.64;48.20;54.48;;
70245;Laerm;57637;49.272;8.590;2024-01-10T12:52:52;50.03;47.99;52.86;;
70245;Laerm;57637;49.272;8.590;2024-01-10T12:55:17;50.88;48.36;54.21;;
70245;Laerm;57637;49.272;8.590;2024-01-10T12:57:43;50.39;48.23;53.52;;
70245;Laerm;57637;49.272;8.590;2024-01-10T13:00:09;50.96;48.24;54.09;;
70245;Laerm;57637;49.272;8.590;2024-01-10T13:02:35;50.55;47.52;53.73;;
70245;Laerm;57637;49.272;8.590;2024-01-10T13:05:06;50.52;48.39;53.46;;
70245;Laerm;57637;49.272;8.590;2024-01-10T13:07:35;50.13;48.20;53.94;;
70245;Laerm;57637;49.272;8.590;2024-01-10T13:10:00;49.80;48.13;52.41;;
70245;Laerm;57637;49.272;8.590;2024-01-10T13:12:26;50.58;48.20;53.55;;
70245;Laerm;57637;49.272;8.590;2024-01-10T13:14:52;50.71;48.28;53.85;;
70245;Laerm;57637;49.272;8.590;2024-01-10T13:17:18;50.15;48.26;53.33;;
70245;Laerm;57637;49.272;8.590;2024-01-10T13:19:43;51.16;48.43;54.54;;
70245;Laerm;57637;49.272;8.590;2024-01-10T13:22:13;51.55;48.35;55.16;;
70245;Laerm;57637;49.272;8.590;2024-01-10T13:24:41;50.67;48.29;53.74;;
70245;Laerm;57637;49.272;8.590;2024-01-10T13:27:07;51.18;48.32;54.42;;
70245;Laerm;57637;49.272;8.590;2024-01-10T13:29:32;51.40;48.49;54.92;;
70245;Laerm;57637;49.272;8.590;2024-01-10T13:31:58;50.65;48.37;54.05;;
70245;Laerm;57637;49.272;8.590;2024-01-10T13:34:23;50.66;48.50;54.04;;
70245;Laerm;57637;49.272;8.590;2024-01-10T13:36:48;50.34;48.12;54.21;;
70245;Laerm;57637;49.272;8.590;2024-01-10T13:39:14;50.25;48.20;53.65;;
70245;Laerm;57637;49.272;8.590;2024-01-10T13:41:40;50.14;48.28;52.97;;
70245;Laerm;57637;49.272;8.590;2024-01-10T13:44:05;50.66;48.38;54.69;;
70245;Laerm;57637;49.272;8.590;2024-01-10T13:46:31;50.37;48.20;53.33;;
70245;Laerm;57637;49.272;8.590;2024-01-10T13:48:56;50.59;48.26;54.16;;
70245;Laerm;57637;49.272;8.590;2024-01-10T13:51:21;50.15;48.18;53.03;;